Terminal Aerodrome Forecast
Issued by NWS Albuquerque, NM

Home | Current Version | Previous Version | Text Only | Print | Product List | Glossary On
Versions: 1 2 3 4 5 6 7 8 9 10 11 12 13 14 15
000
FTUS45 KABQ 221700
TAFABQ
TAF
KABQ 221740Z 2218/2318 15010KT P6SM VCSH SCT040 BKN060
     FM222100 18010KT P6SM VCTS BKN050CB
      TEMPO 2221/2301 VRB15G25KT -TSRA SCT035 BKN050CB
     FM230100 12010KT P6SM VCSH SCT045 BKN060
     FM230300 VRB05KT P6SM SCT045 BKN070=

USA.gov is the U.S. government's official web portal to all federal, state and local government web resources and services.